Time;durP1;ratioP1;P1;durP2;ratioP2;P2;SDS_P1;SDS_P2;PMS_P1;PMS_P2;Temp;Humidity;BMP_temperature;BMP_pressure;BME280_temperature;BME280_humidity;BME280_pressure;Samples;Min_cycle;Max_cycle;Signal;HPM_P1;HPM_P2
2022/08/20 00:00:59;;;;;;;22.67;15.47;;;;;;;18.50;100.00;101425.06;5041409;28;20567;-80
2022/08/20 00:03:28;;;;;;;22.38;15.48;;;;;;;18.50;100.00;101422.31;5042833;28;20441;-80
2022/08/20 00:05:58;;;;;;;23.00;16.25;;;;;;;18.49;100.00;101420.66;5041745;28;20056;-82
2022/08/20 00:08:23;;;;;;;22.43;15.83;;;;;;;18.49;100.00;101420.66;5043622;28;20479;-81
2022/08/20 00:10:50;;;;;;;23.67;17.00;;;;;;;18.48;100.00;101414.34;5043598;28;20032;-80
2022/08/20 00:13:21;;;;;;;24.10;16.58;;;;;;;18.46;100.00;101421.16;5042741;28;20033;-81
2022/08/20 00:15:46;;;;;;;24.00;15.90;;;;;;;18.46;100.00;101412.94;5041413;28;20250;-80
2022/08/20 00:18:13;;;;;;;25.35;15.90;;;;;;;18.44;100.00;101413.19;5043796;28;20730;-81
2022/08/20 00:20:42;;;;;;;24.42;16.75;;;;;;;18.45;100.00;101414.00;5043591;28;20041;-81
2022/08/20 00:23:08;;;;;;;23.67;16.00;;;;;;;18.45;100.00;101411.28;5042855;28;20045;-83
2022/08/20 00:25:33;;;;;;;25.48;16.95;;;;;;;18.46;100.00;101407.44;5043030;28;20040;-83
2022/08/20 00:28:00;;;;;;;25.35;17.00;;;;;;;18.42;100.00;101414.53;5043084;28;20046;-81
2022/08/20 00:30:26;;;;;;;23.08;16.33;;;;;;;18.39;100.00;101422.16;5058042;28;20033;-81
2022/08/20 00:33:02;;;;;;;25.45;16.98;;;;;;;18.39;100.00;101416.66;5042998;28;20551;-81
2022/08/20 00:35:30;;;;;;;22.02;15.63;;;;;;;18.38;100.00;101412.25;5041654;28;20052;-81
2022/08/20 00:37:56;;;;;;;23.73;16.75;;;;;;;18.37;100.00;101409.78;5042374;28;20029;-82
2022/08/20 00:40:25;;;;;;;25.35;18.75;;;;;;;18.32;100.00;101410.53;5042574;28;20071;-80
2022/08/20 00:42:56;;;;;;;23.83;18.05;;;;;;;18.29;100.00;101400.06;5040465;28;20029;-79
2022/08/20 00:45:25;;;;;;;24.37;17.27;;;;;;;18.25;100.00;101407.13;5042895;28;20294;-80
2022/08/20 00:47:51;;;;;;;22.67;16.70;;;;;;;18.25;100.00;101401.66;5042701;28;20116;-79
2022/08/20 00:50:21;;;;;;;23.00;17.07;;;;;;;18.30;100.00;101406.38;5041898;28;20037;-80
2022/08/20 00:52:49;;;;;;;23.87;16.67;;;;;;;18.27;100.00;101407.69;5043287;28;20047;-80
2022/08/20 00:55:18;;;;;;;24.73;16.52;;;;;;;18.26;100.00;101413.44;5041198;28;20049;-80
2022/08/20 00:57:47;;;;;;;28.42;18.13;;;;;;;18.22;100.00;101411.19;5043518;28;20037;-80
2022/08/20 01:00:18;;;;;;;25.83;17.55;;;;;;;18.23;100.00;101406.53;5043283;28;20033;-80
2022/08/20 01:02:45;;;;;;;24.67;17.33;;;;;;;18.22;100.00;101416.69;5042192;28;20090;-80
2022/08/20 01:05:11;;;;;;;23.67;17.38;;;;;;;18.21;100.00;101414.19;5041649;28;20041;-80
2022/08/20 01:07:37;;;;;;;25.70;17.40;;;;;;;18.23;100.00;101412.03;5042072;28;20487;-80
2022/08/20 01:10:15;;;;;;;25.83;17.00;;;;;;;18.34;100.00;101407.53;5041410;28;20037;-80
2022/08/20 01:12:43;;;;;;;25.23;17.47;;;;;;;18.27;100.00;101410.44;5056187;28;20040;-80
2022/08/20 01:15:13;;;;;;;25.70;16.67;;;;;;;18.31;100.00;101408.88;5041744;28;20053;-80
2022/08/20 01:17:44;;;;;;;25.20;16.35;;;;;;;18.31;100.00;101394.31;5041595;28;20056;-80
2022/08/20 01:20:16;;;;;;;25.02;16.10;;;;;;;18.34;100.00;101408.34;5041946;28;20036;-80
2022/08/20 01:25:52;;;;;;;22.40;16.38;;;;;;;18.36;100.00;101410.88;5041834;28;20051;-80
2022/08/20 01:28:23;;;;;;;23.08;16.52;;;;;;;18.32;100.00;101412.44;5041031;28;20088;-80
2022/08/20 01:30:50;;;;;;;26.75;16.92;;;;;;;18.33;100.00;101411.34;5041746;28;20032;-80
2022/08/20 01:33:21;;;;;;;24.30;17.58;;;;;;;18.33;100.00;101412.19;5041158;28;20041;-80
2022/08/20 01:35:47;;;;;;;24.35;16.92;;;;;;;18.37;100.00;101412.50;5040768;28;20284;-80
2022/08/20 01:38:12;;;;;;;23.85;17.23;;;;;;;18.37;100.00;101416.09;5038533;28;20429;-80
2022/08/20 01:40:47;;;;;;;26.20;18.83;;;;;;;18.37;100.00;101412.50;5042089;28;20044;-80
2022/08/20 01:43:14;;;;;;;25.20;17.08;;;;;;;18.36;100.00;101411.69;5041249;28;20610;-80
2022/08/20 01:45:39;;;;;;;25.02;18.48;;;;;;;18.37;100.00;101413.38;5041204;28;20053;-80
2022/08/20 01:48:05;;;;;;;28.88;19.30;;;;;;;18.38;100.00;101409.50;5041483;28;20136;-80
2022/08/20 01:50:31;;;;;;;27.63;18.13;;;;;;;18.37;100.00;101418.00;5041675;28;20033;-80
2022/08/20 01:53:17;;;;;;;27.52;19.77;;;;;;;18.38;100.00;101409.50;5041414;28;21342;-80
2022/08/20 01:55:42;;;;;;;24.55;18.63;;;;;;;18.36;100.00;101406.22;5039040;28;20925;-80
2022/08/20 01:58:08;;;;;;;26.90;18.50;;;;;;;18.34;100.00;101397.38;5041052;28;20045;-80
2022/08/20 02:00:34;;;;;;;23.92;17.80;;;;;;;18.32;100.00;101406.97;5041181;28;20135;-80
2022/08/20 02:03:02;;;;;;;24.90;18.58;;;;;;;18.30;100.00;101409.94;5040931;28;20040;-80
2022/08/20 02:05:28;;;;;;;27.55;18.45;;;;;;;18.31;100.00;101406.13;5041038;28;20040;-80
2022/08/20 02:07:54;;;;;;;24.83;18.73;;;;;;;18.31;100.00;101416.28;5040889;28;20028;-80
2022/08/20 02:10:20;;;;;;;24.73;18.58;;;;;;;18.28;100.00;101403.88;5040886;28;20516;-80
2022/08/20 02:12:45;;;;;;;27.13;19.67;;;;;;;18.30;100.00;101406.38;5040888;28;20389;-79
2022/08/20 02:15:12;;;;;;;26.60;19.75;;;;;;;18.31;100.00;101413.53;5040879;28;20068;-80
2022/08/20 02:17:38;;;;;;;27.52;19.20;;;;;;;18.31;100.00;101417.09;5040725;28;20247;-80
2022/08/20 02:20:14;;;;;;;25.70;19.52;;;;;;;18.31;100.00;101422.56;5041252;28;20033;-79
2022/08/20 02:22:48;;;;;;;29.75;20.55;;;;;;;18.32;100.00;101421.50;5040503;28;20401;-79
2022/08/20 02:25:53;;;;;;;26.70;19.35;;;;;;;18.32;100.00;101418.75;5040444;28;20246;-80
2022/08/20 02:28:19;;;;;;;28.73;19.83;;;;;;;18.30;100.00;101412.69;5038490;28;20041;-79
2022/08/20 02:30:49;;;;;;;25.77;19.88;;;;;;;18.28;100.00;101414.00;5041136;28;20059;-80
2022/08/20 02:33:48;;;;;;;30.20;20.13;;;;;;;18.29;100.00;101410.19;5039368;28;20119;-80
2022/08/20 02:36:17;;;;;;;27.95;20.40;;;;;;;18.27;100.00;101412.38;5040669;28;20032;-80
2022/08/20 02:38:45;;;;;;;28.05;21.20;;;;;;;18.26;100.00;101417.00;5040508;28;20037;-80
2022/08/20 02:41:11;;;;;;;28.75;21.13;;;;;;;18.26;100.00;101419.75;5041051;28;20630;-79
2022/08/20 02:43:37;;;;;;;29.77;21.40;;;;;;;18.27;100.00;101418.66;5041335;28;20098;-81
2022/08/20 02:46:03;;;;;;;28.90;21.83;;;;;;;18.22;100.00;101410.34;5040062;28;20041;-80
2022/08/20 02:48:30;;;;;;;31.73;22.70;;;;;;;18.22;100.00;101415.84;5040655;28;20041;-81
2022/08/20 02:51:01;;;;;;;31.35;22.48;;;;;;;18.20;100.00;101424.31;5039803;28;21473;-80
2022/08/20 02:53:30;;;;;;;31.95;22.60;;;;;;;18.19;100.00;101421.84;5041014;28;20040;-80
2022/08/20 02:55:55;;;;;;;32.38;22.80;;;;;;;18.16;100.00;101416.84;5041630;28;20082;-80
2022/08/20 02:58:21;;;;;;;34.05;23.52;;;;;;;18.15;100.00;101415.19;5040655;28;20024;-80
2022/08/20 03:00:47;;;;;;;33.90;23.55;;;;;;;18.15;100.00;101420.66;5039418;28;20505;-80
2022/08/20 03:03:14;;;;;;;31.90;22.90;;;;;;;18.12;100.00;101421.19;5040428;28;20032;-80
2022/08/20 03:05:41;;;;;;;32.22;23.08;;;;;;;18.13;100.00;101431.03;5040299;28;20140;-80
2022/08/20 03:08:08;;;;;;;31.83;22.67;;;;;;;18.12;100.00;101426.66;5040637;28;20159;-80
2022/08/20 03:10:35;;;;;;;33.63;23.13;;;;;;;18.11;100.00;101419.50;5040654;28;20245;-80
2022/08/20 03:13:02;;;;;;;33.60;23.15;;;;;;;18.11;100.00;101419.50;5041250;28;20090;-80
2022/08/20 03:15:32;;;;;;;34.13;24.10;;;;;;;18.09;100.00;101413.41;5039788;28;20099;-80
2022/08/20 03:17:58;;;;;;;35.90;23.98;;;;;;;18.07;100.00;101418.34;5040110;28;20029;-81
2022/08/20 03:20:25;;;;;;;32.50;23.45;;;;;;;18.05;100.00;101416.66;5040093;28;20408;-80
2022/08/20 03:22:51;;;;;;;35.45;24.88;;;;;;;18.07;100.00;101413.66;5040671;28;20063;-81
2022/08/20 03:25:17;;;;;;;36.70;25.00;;;;;;;18.04;100.00;101415.00;5040754;28;20481;-80
2022/08/20 03:27:43;;;;;;;37.33;24.08;;;;;;;18.01;100.00;101426.47;5040262;28;20043;-80
2022/08/20 03:30:11;;;;;;;34.97;25.13;;;;;;;18.02;100.00;101428.13;5040212;28;20400;-81
2022/08/20 03:32:37;;;;;;;36.85;25.25;;;;;;;18.02;100.00;101427.31;5040367;28;20043;-81
2022/08/20 03:35:04;;;;;;;37.20;24.43;;;;;;;18.03;100.00;101429.81;5039912;28;20036;-81
2022/08/20 03:37:31;;;;;;;40.57;26.73;;;;;;;18.04;100.00;101431.44;5040165;28;20476;-82
2022/08/20 03:39:58;;;;;;;38.20;26.63;;;;;;;18.04;100.00;101434.19;5039343;28;20033;-82
2022/08/20 03:42:25;;;;;;;37.40;26.60;;;;;;;18.06;100.00;101436.72;5021677;28;20127;-81
2022/08/20 03:44:50;;;;;;;40.00;26.63;;;;;;;18.04;100.00;101442.41;5040446;28;20379;-81
2022/08/20 03:47:16;;;;;;;39.83;27.05;;;;;;;18.05;100.00;101438.59;5039952;28;20033;-82
2022/08/20 03:49:41;;;;;;;40.50;29.00;;;;;;;18.05;100.00;101435.84;5040687;28;20107;-81
2022/08/20 03:52:07;;;;;;;40.65;27.10;;;;;;;18.04;100.00;101436.94;5043419;28;20257;-82
2022/08/20 03:54:32;;;;;;;42.05;28.15;;;;;;;18.04;100.00;101436.13;5044040;28;20037;-82
2022/08/20 03:57:01;;;;;;;45.57;29.63;;;;;;;18.02;100.00;101430.06;5044257;28;20040;-83
2022/08/20 03:59:27;;;;;;;44.40;30.50;;;;;;;17.99;100.00;101434.13;5043075;28;20454;-84
2022/08/20 04:01:53;;;;;;;47.23;30.83;;;;;;;18.03;100.00;101428.97;5043039;28;20496;-84
2022/08/20 04:04:19;;;;;;;47.13;30.17;;;;;;;17.98;100.00;101426.16;5043607;28;20036;-83
2022/08/20 04:06:46;;;;;;;46.50;32.23;;;;;;;17.99;100.00;101433.28;5043603;28;20120;-83
2022/08/20 04:09:12;;;;;;;45.57;31.37;;;;;;;17.96;100.00;101434.59;5043192;28;20032;-83
2022/08/20 04:11:38;;;;;;;44.97;30.95;;;;;;;17.98;100.00;101435.19;5040852;28;20132;-83
2022/08/20 04:14:03;;;;;;;47.57;31.37;;;;;;;17.98;100.00;101442.59;5042693;28;20207;-84
2022/08/20 04:16:29;;;;;;;50.22;32.92;;;;;;;18.01;100.00;101447.59;5043697;28;20144;-84
2022/08/20 04:18:54;;;;;;;49.53;34.37;;;;;;;17.93;100.00;101446.06;5042035;28;20055;-84
2022/08/20 04:21:19;;;;;;;50.15;33.88;;;;;;;17.95;100.00;101451.28;5043877;28;20595;-83
2022/08/20 04:23:45;;;;;;;51.03;35.83;;;;;;;17.92;100.00;101454.53;5043330;28;20044;-85
2022/08/20 04:26:10;;;;;;;54.47;36.27;;;;;;;17.88;100.00;101454.16;5042887;28;20040;-85
2022/08/20 04:28:35;;;;;;;59.20;36.05;;;;;;;17.78;100.00;101441.09;5042698;28;20029;-85
2022/08/20 04:31:01;;;;;;;47.65;34.95;;;;;;;17.84;100.00;101462.06;5043106;28;20088;-83
2022/08/20 04:33:29;;;;;;;54.35;36.42;;;;;;;17.82;100.00;101455.97;5042564;28;20120;-83
2022/08/20 04:36:01;;;;;;;54.53;37.47;;;;;;;17.83;100.00;101456.84;5041683;28;20036;-84
2022/08/20 04:38:28;;;;;;;51.45;35.88;;;;;;;17.78;100.00;101460.28;5042253;28;20029;-84
2022/08/20 04:40:56;;;;;;;52.13;36.77;;;;;;;17.77;100.00;101461.34;5043562;28;20044;-84
2022/08/20 04:43:28;;;;;;;52.20;36.50;;;;;;;17.77;100.00;101460.53;5043167;28;20519;-83
2022/08/20 04:45:56;;;;;;;54.97;37.97;;;;;;;17.70;100.00;101457.94;5042682;28;20041;-84
2022/08/20 04:48:23;;;;;;;55.70;36.13;;;;;;;17.77;100.00;101466.03;5042041;28;20041;-84
2022/08/20 04:50:50;;;;;;;53.63;38.17;;;;;;;17.75;100.00;101473.63;5043197;28;20036;-84
2022/08/20 04:53:18;;;;;;;52.00;37.20;;;;;;;17.75;100.00;101473.63;5057643;28;20509;-87
2022/08/20 04:55:45;;;;;;;56.35;38.50;;;;;;;17.76;100.00;101478.06;5042486;28;20044;-85
2022/08/20 04:58:20;;;;;;;55.40;38.00;;;;;;;17.72;100.00;101484.03;5042247;28;20060;-85
2022/08/20 05:00:50;;;;;;;56.27;37.97;;;;;;;17.71;100.00;101492.50;5042995;28;20087;-86
2022/08/20 05:03:17;;;;;;;55.40;38.00;;;;;;;17.67;100.00;101491.31;5039634;28;20660;-83
2022/08/20 05:05:44;;;;;;;56.03;39.27;;;;;;;17.66;100.00;101489.66;5042332;28;20325;-84
2022/08/20 05:08:11;;;;;;;59.20;39.07;;;;;;;17.66;100.00;101489.66;5042253;28;20721;-86
2022/08/20 05:10:37;;;;;;;53.47;39.33;;;;;;;17.61;100.00;101492.28;5043000;28;20036;-85
2022/08/20 05:13:04;;;;;;;60.47;37.30;;;;;;;17.57;100.00;101494.69;5042193;28;20991;-86
2022/08/20 05:15:29;;;;;;;53.63;37.63;;;;;;;17.48;100.00;101504.38;5041561;28;20448;-86
2022/08/20 05:18:04;;;;;;;54.43;37.23;;;;;;;17.48;100.00;101505.19;5044440;28;20029;-84
2022/08/20 05:20:32;;;;;;;55.10;38.07;;;;;;;17.42;100.00;101510.81;5055512;28;20515;-85
2022/08/20 05:22:59;;;;;;;54.40;37.53;;;;;;;17.46;100.00;101504.63;5041760;28;20075;-85
2022/08/20 05:25:27;;;;;;;54.07;36.53;;;;;;;17.43;100.00;101494.13;5041123;28;20032;-85
2022/08/20 05:28:08;;;;;;;57.17;36.00;;;;;;;17.40;100.00;101493.78;5041713;28;20024;-86
2022/08/20 05:30:34;;;;;;;54.40;37.07;;;;;;;17.39;100.00;101490.19;5041988;28;20037;-86
2022/08/20 05:33:00;;;;;;;52.37;36.13;;;;;;;17.33;100.00;101497.47;5042420;28;20080;-84
2022/08/20 05:35:26;;;;;;;54.63;35.43;;;;;;;17.34;100.00;101504.63;5042388;28;20079;-83
2022/08/20 05:37:52;;;;;;;53.00;34.33;;;;;;;17.33;100.00;101504.88;5041819;28;20119;-86
2022/08/20 05:40:18;;;;;;;47.23;35.13;;;;;;;17.30;100.00;101517.13;5042323;28;20379;-84
2022/08/20 05:42:44;;;;;;;52.67;33.27;;;;;;;17.27;100.00;101512.16;5041650;28;20087;-86
2022/08/20 05:45:10;;;;;;;54.70;34.03;;;;;;;17.26;100.00;101518.69;5041740;28;20041;-85
2022/08/20 05:47:39;;;;;;;52.30;33.73;;;;;;;17.21;100.00;101515.84;5023542;28;20060;-84
2022/08/20 05:50:06;;;;;;;54.20;34.50;;;;;;;17.20;100.00;101508.69;5056255;28;20512;-84
2022/08/20 05:52:32;;;;;;;54.00;33.10;;;;;;;17.23;100.00;101519.19;5041022;28;20705;-84
2022/08/20 05:54:57;;;;;;;49.40;33.67;;;;;;;17.19;100.00;101518.00;5041404;28;20132;-84
2022/08/20 05:57:23;;;;;;;51.90;34.43;;;;;;;17.24;100.00;101520.00;5039479;28;20040;-84
2022/08/20 05:59:48;;;;;;;52.43;34.10;;;;;;;17.19;100.00;101515.25;5041269;28;20040;-83
2022/08/20 06:04:57;;;;;;;53.30;33.80;;;;;;;17.23;100.00;101521.94;5041255;28;20099;-84
2022/08/20 06:07:23;;;;;;;51.63;33.93;;;;;;;17.22;100.00;101517.50;5039289;28;20049;-85
2022/08/20 06:09:48;;;;;;;51.67;34.67;;;;;;;17.24;100.00;101531.78;5040811;28;20045;-85
2022/08/20 06:12:15;;;;;;;51.13;34.23;;;;;;;17.25;100.00;101521.69;5040209;28;20044;-86
2022/08/20 06:14:41;;;;;;;50.77;34.97;;;;;;;17.27;100.00;101527.72;5056209;28;20503;-84
2022/08/20 06:17:10;;;;;;;50.63;35.07;;;;;;;17.27;100.00;101535.94;5041299;28;20040;-84
2022/08/20 06:19:36;;;;;;;47.67;34.97;;;;;;;17.30;100.00;101525.34;5039989;28;20032;-85
2022/08/20 06:22:02;;;;;;;50.57;34.13;;;;;;;17.34;100.00;101525.72;5040190;28;20052;-84
2022/08/20 06:24:28;;;;;;;48.00;34.60;;;;;;;17.44;100.00;101530.59;5040245;28;20485;-83
2022/08/20 06:27:03;;;;;;;50.00;34.87;;;;;;;17.49;100.00;101527.97;5040793;28;20071;-85
2022/08/20 06:29:32;;;;;;;50.17;35.03;;;;;;;17.55;100.00;101532.44;5041510;28;20036;-84
2022/08/20 06:31:57;;;;;;;49.37;33.43;;;;;;;17.58;100.00;101526.47;5041324;28;20044;-83
2022/08/20 06:34:26;;;;;;;52.13;34.58;;;;;;;17.59;100.00;101530.88;5041266;28;20032;-82
2022/08/20 06:36:53;;;;;;;49.83;34.20;;;;;;;17.64;100.00;101525.53;5039104;28;20048;-82
2022/08/20 06:39:18;;;;;;;45.77;33.77;;;;;;;17.58;100.00;101537.44;5041060;28;20064;-83
2022/08/20 06:41:50;;;;;;;44.72;32.38;;;;;;;17.63;100.00;101539.47;5041288;28;20044;-83
2022/08/20 06:44:16;;;;;;;45.63;32.93;;;;;;;17.71;100.00;101537.16;5041266;28;21481;-82
2022/08/20 06:46:42;;;;;;;46.25;32.85;;;;;;;17.74;100.00;101535.84;5040789;28;20064;-84
2022/08/20 06:49:07;;;;;;;43.37;32.07;;;;;;;17.75;100.00;101540.28;5040591;28;20040;-83
2022/08/20 06:51:36;;;;;;;43.27;31.20;;;;;;;17.75;100.00;101540.28;5040966;28;20044;-82
2022/08/20 06:54:02;;;;;;;41.37;31.63;;;;;;;17.80;100.00;101539.53;5038422;28;20118;-80
2022/08/20 06:56:27;;;;;;;40.92;30.35;;;;;;;17.78;100.00;101536.22;5040597;28;20041;-82
2022/08/20 06:58:53;;;;;;;44.73;31.70;;;;;;;17.76;100.00;101541.94;5041064;28;20473;-81
2022/08/20 07:01:21;;;;;;;42.63;30.80;;;;;;;17.80;100.00;101534.03;5040104;28;20305;-82
2022/08/20 07:03:48;;;;;;;36.53;27.40;;;;;;;17.79;100.00;101543.34;5038958;28;20044;-82
2022/08/20 07:06:15;;;;;;;40.72;29.33;;;;;;;17.83;100.00;101536.31;5039866;28;20036;-83
2022/08/20 07:08:41;;;;;;;38.03;28.85;;;;;;;17.90;100.00;101545.22;5039888;28;20039;-83
2022/08/20 07:11:06;;;;;;;40.45;30.30;;;;;;;17.96;100.00;101552.50;5039233;28;20041;-86
2022/08/20 07:13:31;;;;;;;34.80;25.53;;;;;;;17.98;100.00;101550.34;5040501;28;20064;-88
2022/08/20 07:15:57;;;;;;;38.75;26.33;;;;;;;18.00;100.00;101548.19;5041092;28;20174;-87
2022/08/20 07:18:22;;;;;;;34.67;25.45;;;;;;;18.06;100.00;101549.13;5056327;28;20074;-87
2022/08/20 07:20:48;;;;;;;38.03;27.85;;;;;;;18.24;100.00;101553.56;5040712;28;20159;-86
2022/08/20 07:23:13;;;;;;;38.13;25.85;;;;;;;18.31;100.00;101553.44;5040751;28;20029;-87
2022/08/20 07:25:41;;;;;;;37.25;26.35;;;;;;;18.35;100.00;101558.16;5044375;28;20044;-84
2022/08/20 07:28:21;;;;;;;31.98;25.80;;;;;;;18.45;100.00;101556.69;5043796;28;20032;-88
2022/08/20 07:33:31;;;;;;;34.70;24.25;;;;;;;18.62;100.00;101563.03;5044267;28;20048;-86
2022/08/20 07:35:58;;;;;;;31.98;21.98;;;;;;;18.64;100.00;101571.81;5044378;28;20064;-84
2022/08/20 07:38:25;;;;;;;28.77;22.02;;;;;;;18.92;100.00;101578.38;5044075;28;20033;-86
2022/08/20 07:40:53;;;;;;;29.67;22.40;;;;;;;19.00;100.00;101569.72;5044204;28;20392;-85
2022/08/20 07:43:18;;;;;;;27.75;20.55;;;;;;;19.00;100.00;101566.97;5044344;28;20039;-85
2022/08/20 07:45:44;;;;;;;29.80;21.45;;;;;;;18.94;100.00;101576.19;5044905;28;20032;-86
2022/08/20 07:48:12;;;;;;;29.83;20.08;;;;;;;19.01;100.00;101579.63;5044031;28;20032;-85
2022/08/20 07:50:38;;;;;;;26.85;18.27;;;;;;;18.97;100.00;101591.34;5043840;28;20040;-84
2022/08/20 07:53:04;;;;;;;24.30;17.20;;;;;;;18.99;100.00;101579.03;5043691;28;20371;-88
2022/08/20 07:55:30;;;;;;;27.33;19.58;;;;;;;19.16;100.00;101583.66;5043976;28;20472;-85
2022/08/20 07:57:59;;;;;;;26.25;19.27;;;;;;;19.37;100.00;101584.81;5044101;28;20033;-88
2022/08/20 08:00:25;;;;;;;23.15;17.58;;;;;;;19.59;100.00;101598.56;5043482;28;20036;-85
2022/08/20 08:02:51;;;;;;;21.67;16.10;;;;;;;19.54;100.00;101598.50;5044223;28;20105;-85
2022/08/20 08:05:17;;;;;;;23.55;15.90;;;;;;;19.44;98.92;101590.94;5043844;28;20037;-88
2022/08/20 08:07:43;;;;;;;22.75;16.02;;;;;;;19.70;100.00;101592.13;5044047;28;20116;-88
2022/08/20 08:10:15;;;;;;;22.40;16.48;;;;;;;19.86;99.23;101595.94;5043995;28;20033;-87
2022/08/20 08:12:46;;;;;;;21.98;15.90;;;;;;;19.93;96.51;101592.97;5043482;28;20650;-89
2022/08/20 08:15:16;;;;;;;22.27;14.07;;;;;;;20.08;95.24;101600.59;5043623;28;20094;-86
2022/08/20 08:17:43;;;;;;;20.63;14.48;;;;;;;19.83;94.00;101606.63;5043749;28;20037;-87
2022/08/20 08:20:11;;;;;;;21.42;14.55;;;;;;;19.73;95.69;101604.53;5043792;28;20033;-89
2022/08/20 08:22:38;;;;;;;21.63;13.38;;;;;;;19.57;95.16;101600.75;5043261;28;20029;-85
2022/08/20 08:25:05;;;;;;;18.70;12.23;;;;;;;19.67;93.51;101600.88;5042077;28;20044;-87
2022/08/20 08:27:34;;;;;;;18.08;12.50;;;;;;;19.83;92.94;101601.13;5044180;28;20380;-86
2022/08/20 08:30:01;;;;;;;17.27;12.57;;;;;;;20.24;95.58;101604.34;5043250;28;20377;-87
2022/08/20 08:32:30;;;;;;;21.83;13.82;;;;;;;20.39;95.19;101611.94;5042104;28;20066;-88
2022/08/20 08:34:55;;;;;;;17.00;10.55;;;;;;;20.21;87.34;101610.38;5040853;28;20370;-85
2022/08/20 08:37:20;;;;;;;16.92;12.40;;;;;;;20.06;89.67;101609.09;5042742;28;20119;-88
2022/08/20 08:39:46;;;;;;;18.35;11.77;;;;;;;19.99;90.05;101608.47;5044848;28;20041;-85
2022/08/20 08:42:43;;;;;;;17.90;11.20;;;;;;;20.10;90.91;101603.06;5041615;28;20033;-86
2022/08/20 08:45:11;;;;;;;17.50;11.05;;;;;;;20.47;91.07;101616.16;5042417;28;20916;-86
2022/08/20 08:47:39;;;;;;;18.00;10.82;;;;;;;20.73;89.51;101618.06;5042541;28;20039;-88
2022/08/20 08:50:08;;;;;;;16.55;10.40;;;;;;;20.93;87.26;101627.63;5042309;28;20078;-90
2022/08/20 08:52:39;;;;;;;15.95;9.98;;;;;;;21.04;83.90;101625.78;5043011;28;20044;-87
2022/08/20 08:55:08;;;;;;;15.27;10.23;;;;;;;20.96;83.39;101629.03;5041903;28;20538;-85
2022/08/20 08:57:34;;;;;;;16.05;10.02;;;;;;;21.08;82.56;101624.97;5058211;28;20148;-89
2022/08/20 09:00:05;;;;;;;17.70;9.50;;;;;;;21.20;81.94;101632.22;5042407;28;21741;-85
2022/08/20 09:02:32;;;;;;;15.52;9.45;;;;;;;21.29;80.60;101635.31;5043053;28;20523;-84
2022/08/20 09:05:00;;;;;;;15.38;8.90;;;;;;;21.53;80.20;101631.09;5041306;28;20036;-87
2022/08/20 09:07:31;;;;;;;15.82;9.00;;;;;;;21.77;80.05;101632.59;5043620;28;20553;-85
2022/08/20 09:09:57;;;;;;;14.52;9.70;;;;;;;22.01;78.55;101635.75;5041890;28;20764;-85
2022/08/20 09:12:26;;;;;;;14.05;8.63;;;;;;;22.22;76.41;101633.88;5058454;28;20040;-86
2022/08/20 09:14:52;;;;;;;14.35;8.35;;;;;;;22.40;74.41;101636.16;5042185;28;20079;-87
2022/08/20 09:17:20;;;;;;;15.02;9.63;;;;;;;22.32;73.88;101633.91;5042711;28;20032;-85
2022/08/20 09:19:45;;;;;;;15.77;8.93;;;;;;;22.39;75.28;101630.94;5042066;28;20084;-86
2022/08/20 09:22:16;;;;;;;14.52;8.48;;;;;;;22.34;75.56;101637.25;5041935;28;20119;-87
2022/08/20 09:24:42;;;;;;;14.88;8.50;;;;;;;22.51;73.46;101644.50;5041429;28;20037;-85
2022/08/20 09:27:08;;;;;;;13.05;7.78;;;;;;;22.29;70.73;101641.91;5041608;28;20064;-85
2022/08/20 09:29:34;;;;;;;12.40;8.30;;;;;;;22.43;70.71;101637.56;5042504;28;20041;-85
2022/08/20 09:32:09;;;;;;;11.98;7.95;;;;;;;22.69;73.18;101635.66;5041651;28;20036;-86
2022/08/20 09:34:50;;;;;;;14.30;8.02;;;;;;;22.68;69.06;101634.00;5041895;28;20039;-86
2022/08/20 09:37:16;;;;;;;13.80;8.00;;;;;;;23.03;70.90;101635.13;5041342;28;20082;-86
2022/08/20 09:39:42;;;;;;;12.93;6.40;;;;;;;22.91;66.39;101626.28;5040534;28;20696;-86
2022/08/20 09:42:17;;;;;;;14.80;6.80;;;;;;;22.97;69.03;101629.88;5042538;28;20041;-83
2022/08/20 09:44:43;;;;;;;11.82;6.97;;;;;;;22.93;66.65;101635.13;5041834;28;20095;-87
2022/08/20 09:47:09;;;;;;;16.17;7.68;;;;;;;23.15;68.42;101634.06;5042445;28;20411;-86
2022/08/20 09:49:36;;;;;;;12.10;6.55;;;;;;;23.30;65.92;101624.91;5041914;28;20388;-87
2022/08/20 09:52:03;;;;;;;12.77;6.00;;;;;;;23.52;64.34;101635.66;5041011;28;20041;-86
2022/08/20 09:54:29;;;;;;;10.90;5.50;;;;;;;23.45;59.74;101635.13;5055867;28;20090;-86
2022/08/20 09:57:02;;;;;;;12.35;5.93;;;;;;;23.56;64.16;101636.75;5042053;28;20123;-85
2022/08/20 09:59:29;;;;;;;10.88;5.35;;;;;;;23.45;60.31;101627.63;5041374;28;20037;-86
2022/08/20 10:01:54;;;;;;;13.40;6.28;;;;;;;23.52;60.74;101630.94;5041110;28;20103;-85
2022/08/20 10:04:20;;;;;;;12.68;5.45;;;;;;;23.75;60.58;101632.25;5026891;28;21749;-85
2022/08/20 10:06:45;;;;;;;11.45;5.63;;;;;;;23.86;62.17;101619.19;5040937;28;20179;-87
2022/08/20 10:09:11;;;;;;;12.20;5.20;;;;;;;24.23;59.26;101625.41;5040368;28;20091;-87
2022/08/20 10:11:36;;;;;;;15.73;5.60;;;;;;;24.21;59.33;101631.25;5041879;28;20041;-86
2022/08/20 10:14:01;;;;;;;13.45;5.53;;;;;;;24.26;55.88;101628.47;5039271;28;20067;-86
2022/08/20 10:16:27;;;;;;;10.73;5.75;;;;;;;24.28;57.62;101630.94;5039212;28;20040;-86
2022/08/20 10:18:53;;;;;;;12.63;6.38;;;;;;;24.24;58.12;101627.09;5043616;28;20139;-86
2022/08/20 10:21:19;;;;;;;12.30;5.13;;;;;;;24.67;60.00;101624.63;5039457;28;20719;-86
2022/08/20 10:23:45;;;;;;;11.50;5.57;;;;;;;24.39;57.94;101629.75;5040804;28;20116;-85
2022/08/20 10:26:11;;;;;;;12.13;5.68;;;;;;;24.15;57.48;101634.31;5040977;28;20086;-85
2022/08/20 10:28:37;;;;;;;8.07;3.08;;;;;;;23.85;51.19;101636.91;5038241;28;20154;-85
2022/08/20 10:31:07;;;;;;;13.15;3.40;;;;;;;23.13;56.74;101637.06;5035778;28;20045;-86
2022/08/20 10:33:33;;;;;;;10.45;3.60;;;;;;;22.98;55.51;101635.13;5052807;28;20411;-86
2022/08/20 10:36:14;;;;;;;10.82;3.10;;;;;;;23.31;59.39;101635.69;5036302;28;20095;-85
2022/08/20 10:38:40;;;;;;;11.27;2.95;;;;;;;23.49;54.15;101633.44;5038232;28;20043;-85
2022/08/20 10:41:05;;;;;;;10.68;3.13;;;;;;;23.63;54.77;101637.25;5037035;28;20823;-86
2022/08/20 10:43:31;;;;;;;9.30;2.80;;;;;;;23.90;53.20;101633.34;5052331;28;20033;-84
2022/08/20 10:45:57;;;;;;;10.70;2.95;;;;;;;24.19;52.90;101635.41;5037309;28;20036;-85
2022/08/20 10:48:23;;;;;;;11.10;2.97;;;;;;;24.26;56.37;101638.69;5037627;28;20118;-85
2022/08/20 10:50:49;;;;;;;9.70;3.20;;;;;;;24.17;53.50;101632.13;5035355;28;20085;-86
2022/08/20 10:53:14;;;;;;;10.70;3.33;;;;;;;23.74;54.18;101638.06;5037751;28;20086;-86
2022/08/20 10:55:40;;;;;;;12.13;3.30;;;;;;;23.49;52.99;101639.78;5037773;28;20049;-85
2022/08/20 10:58:06;;;;;;;11.02;3.17;;;;;;;23.12;55.61;101640.09;5037980;28;20056;-87
2022/08/20 11:00:32;;;;;;;10.52;2.75;;;;;;;22.88;54.38;101632.38;5041542;28;20480;-88
2022/08/20 11:02:57;;;;;;;7.72;2.75;;;;;;;22.75;53.93;101640.09;5038548;28;20048;-84
2022/08/20 11:05:22;;;;;;;11.85;2.95;;;;;;;22.70;55.04;101639.28;5038749;28;20112;-85
2022/08/20 11:07:48;;;;;;;10.27;3.13;;;;;;;22.46;55.44;101645.28;5040939;28;20076;-84
2022/08/20 11:10:14;;;;;;;12.57;3.22;;;;;;;22.28;59.32;101646.59;5041011;28;20435;-86
2022/08/20 11:12:40;;;;;;;12.70;3.15;;;;;;;22.45;58.48;101642.81;5041060;28;20206;-84
2022/08/20 11:15:06;;;;;;;10.80;2.90;;;;;;;22.52;54.53;101638.69;5041106;28;20116;-84